sensor_id;sensor_type;location;lat;lon;timestamp;pressure;altitude;pressure_sealevel;temperature;humidity
56630;BME280;42502;40.732;-74.254;2023-06-19T00:01:49;100270.13;;;29.40;33.76
56630;BME280;42502;40.732;-74.254;2023-06-19T00:03:50;100268.91;;;29.37;34.22
56630;BME280;42502;40.732;-74.254;2023-06-19T00:05:51;100267.28;;;29.36;34.03
56630;BME280;42502;40.732;-74.254;2023-06-19T00:07:52;100267.34;;;29.33;34.10
56630;BME280;42502;40.732;-74.254;2023-06-19T00:09:56;100266.22;;;29.27;34.22
56630;BME280;42502;40.732;-74.254;2023-06-19T00:11:56;100279.59;;;29.30;33.84
56630;BME280;42502;40.732;-74.254;2023-06-19T00:13:59;100277.16;;;29.28;34.25
56630;BME280;42502;40.732;-74.254;2023-06-19T00:16:02;100280.81;;;29.29;34.04
56630;BME280;42502;40.732;-74.254;2023-06-19T00:18:03;100275.53;;;29.27;34.02
56630;BME280;42502;40.732;-74.254;2023-06-19T00:20:05;100279.63;;;29.26;33.91
56630;BME280;42502;40.732;-74.254;2023-06-19T00:22:06;100275.16;;;29.25;34.23
56630;BME280;42502;40.732;-74.254;2023-06-19T00:24:07;100275.59;;;29.23;34.16
56630;BME280;42502;40.732;-74.254;2023-06-19T00:26:07;100280.50;;;29.23;33.94
56630;BME280;42502;40.732;-74.254;2023-06-19T00:28:08;100279.66;;;29.22;34.20
56630;BME280;42502;40.732;-74.254;2023-06-19T00:30:14;100287.41;;;29.22;34.50
56630;BME280;42502;40.732;-74.254;2023-06-19T00:32:15;100289.44;;;29.21;34.45
56630;BME280;42502;40.732;-74.254;2023-06-19T00:34:16;100293.50;;;29.20;34.20
56630;BME280;42502;40.732;-74.254;2023-06-19T00:36:17;100298.38;;;29.20;34.35
56630;BME280;42502;40.732;-74.254;2023-06-19T00:38:21;100296.75;;;29.19;34.35
56630;BME280;42502;40.732;-74.254;2023-06-19T00:40:28;100279.34;;;29.13;34.16
56630;BME280;42502;40.732;-74.254;2023-06-19T00:42:29;100285.38;;;29.19;34.36
56630;BME280;42502;40.732;-74.254;2023-06-19T00:44:30;100287.41;;;29.18;34.01
56630;BME280;42502;40.732;-74.254;2023-06-19T00:46:31;100278.88;;;29.18;34.34
56630;BME280;42502;40.732;-74.254;2023-06-19T00:48:33;100283.75;;;29.18;34.13
56630;BME280;42502;40.732;-74.254;2023-06-19T00:50:34;100287.41;;;29.18;34.45
56630;BME280;42502;40.732;-74.254;2023-06-19T00:52:37;100292.28;;;29.18;34.09
56630;BME280;42502;40.732;-74.254;2023-06-19T00:54:41;100285.78;;;29.17;34.13
56630;BME280;42502;40.732;-74.254;2023-06-19T00:56:42;100302.88;;;29.17;34.47
56630;BME280;42502;40.732;-74.254;2023-06-19T00:58:49;100293.19;;;29.11;34.20
56630;BME280;42502;40.732;-74.254;2023-06-19T01:00:50;100307.31;;;29.18;34.34
56630;BME280;42502;40.732;-74.254;2023-06-19T01:02:56;100298.81;;;29.15;34.22
56630;BME280;42502;40.732;-74.254;2023-06-19T01:04:57;100306.50;;;29.18;34.25
56630;BME280;42502;40.732;-74.254;2023-06-19T01:07:12;100302.06;;;29.17;34.76
56630;BME280;42502;40.732;-74.254;2023-06-19T01:09:16;100310.59;;;29.17;34.43
56630;BME280;42502;40.732;-74.254;2023-06-19T01:11:20;100315.03;;;29.18;34.33
56630;BME280;42502;40.732;-74.254;2023-06-19T01:13:44;100316.72;;;29.15;34.41
56630;BME280;42502;40.732;-74.254;2023-06-19T01:15:47;100314.66;;;29.16;34.16
56630;BME280;42502;40.732;-74.254;2023-06-19T01:17:48;100314.25;;;29.17;34.29
56630;BME280;42502;40.732;-74.254;2023-06-19T01:19:50;100308.19;;;29.15;34.17
56630;BME280;42502;40.732;-74.254;2023-06-19T01:21:53;100309.41;;;29.14;34.69
56630;BME280;42502;40.732;-74.254;2023-06-19T01:23:57;100316.72;;;29.15;34.46
56630;BME280;42502;40.732;-74.254;2023-06-19T01:25:57;100322.00;;;29.13;34.30
56630;BME280;42502;40.732;-74.254;2023-06-19T01:27:58;100323.22;;;29.12;34.34
56630;BME280;42502;40.732;-74.254;2023-06-19T01:30:01;100331.75;;;29.12;34.31
56630;BME280;42502;40.732;-74.254;2023-06-19T01:32:10;100341.53;;;29.11;34.72
56630;BME280;42502;40.732;-74.254;2023-06-19T01:34:14;100342.38;;;29.08;34.65
56630;BME280;42502;40.732;-74.254;2023-06-19T01:36:18;100351.69;;;29.09;34.45
56630;BME280;42502;40.732;-74.254;2023-06-19T01:38:24;100354.91;;;29.11;34.29
56630;BME280;42502;40.732;-74.254;2023-06-19T01:40:27;100358.59;;;29.11;34.52
56630;BME280;42502;40.732;-74.254;2023-06-19T01:42:32;100351.28;;;29.10;34.32
56630;BME280;42502;40.732;-74.254;2023-06-19T01:44:37;100355.75;;;29.11;34.85
56630;BME280;42502;40.732;-74.254;2023-06-19T01:46:41;100359.84;;;29.06;34.67
56630;BME280;42502;40.732;-74.254;2023-06-19T01:48:42;100375.25;;;29.09;34.55
56630;BME280;42502;40.732;-74.254;2023-06-19T01:50:47;100378.09;;;29.09;34.38
56630;BME280;42502;40.732;-74.254;2023-06-19T01:52:48;100376.50;;;29.08;34.76
56630;BME280;42502;40.732;-74.254;2023-06-19T01:54:55;100379.34;;;29.08;34.99
56630;BME280;42502;40.732;-74.254;2023-06-19T01:56:58;100384.28;;;29.00;34.81
56630;BME280;42502;40.732;-74.254;2023-06-19T01:58:59;100400.47;;;29.07;34.49
56630;BME280;42502;40.732;-74.254;2023-06-19T02:01:05;100402.50;;;29.06;34.52
56630;BME280;42502;40.732;-74.254;2023-06-19T02:03:06;100390.31;;;29.06;34.79
56630;BME280;42502;40.732;-74.254;2023-06-19T02:05:07;100389.50;;;29.05;34.32
56630;BME280;42502;40.732;-74.254;2023-06-19T02:07:08;100388.72;;;29.01;34.89
56630;BME280;42502;40.732;-74.254;2023-06-19T02:09:09;100397.66;;;29.03;34.84
56630;BME280;42502;40.732;-74.254;2023-06-19T02:11:09;100397.66;;;29.03;34.86
56630;BME280;42502;40.732;-74.254;2023-06-19T02:13:10;100406.63;;;29.02;34.88
56630;BME280;42502;40.732;-74.254;2023-06-19T02:15:11;100395.25;;;29.02;34.72
56630;BME280;42502;40.732;-74.254;2023-06-19T02:17:12;100401.72;;;29.02;34.40
56630;BME280;42502;40.732;-74.254;2023-06-19T02:19:13;100392.03;;;28.96;34.61
56630;BME280;42502;40.732;-74.254;2023-06-19T02:21:13;100409.47;;;29.02;34.98
56630;BME280;42502;40.732;-74.254;2023-06-19T02:23:14;100405.00;;;29.01;34.50
56630;BME280;42502;40.732;-74.254;2023-06-19T02:25:15;100414.75;;;29.00;34.54
56630;BME280;42502;40.732;-74.254;2023-06-19T02:27:16;100413.94;;;28.99;34.74
56630;BME280;42502;40.732;-74.254;2023-06-19T02:29:17;100414.00;;;28.96;34.49
56630;BME280;42502;40.732;-74.254;2023-06-19T02:31:18;100424.53;;;28.99;34.55
56630;BME280;42502;40.732;-74.254;2023-06-19T02:33:18;100417.22;;;28.98;34.96
56630;BME280;42502;40.732;-74.254;2023-06-19T02:35:22;100389.72;;;28.80;34.51
56630;BME280;42502;40.732;-74.254;2023-06-19T02:37:26;100411.16;;;28.96;34.45
56630;BME280;42502;40.732;-74.254;2023-06-19T02:39:27;100416.41;;;28.97;34.86
56630;BME280;42502;40.732;-74.254;2023-06-19T02:41:27;100415.59;;;28.97;34.51
56630;BME280;42502;40.732;-74.254;2023-06-19T02:43:29;100401.44;;;28.89;34.85
56630;BME280;42502;40.732;-74.254;2023-06-19T02:45:30;100414.00;;;28.96;34.91
56630;BME280;42502;40.732;-74.254;2023-06-19T02:47:31;100401.44;;;28.89;34.44
56630;BME280;42502;40.732;-74.254;2023-06-19T02:49:37;100412.78;;;28.93;34.90
56630;BME280;42502;40.732;-74.254;2023-06-19T02:51:38;100411.56;;;28.94;34.43
56630;BME280;42502;40.732;-74.254;2023-06-19T02:53:39;100429.03;;;28.93;34.59
56630;BME280;42502;40.732;-74.254;2023-06-19T02:55:42;100426.19;;;28.93;34.96
56630;BME280;42502;40.732;-74.254;2023-06-19T02:57:45;100426.63;;;28.91;34.84
56630;BME280;42502;40.732;-74.254;2023-06-19T02:59:46;100426.63;;;28.91;34.80
56630;BME280;42502;40.732;-74.254;2023-06-19T03:01:47;100425.00;;;28.90;34.80
56630;BME280;42502;40.732;-74.254;2023-06-19T03:03:48;100421.34;;;28.89;34.63
56630;BME280;42502;40.732;-74.254;2023-06-19T03:05:49;100423.38;;;28.89;34.44
56630;BME280;42502;40.732;-74.254;2023-06-19T03:07:50;100428.25;;;28.88;34.64
56630;BME280;42502;40.732;-74.254;2023-06-19T03:09:50;100435.16;;;28.87;34.71
56630;BME280;42502;40.732;-74.254;2023-06-19T03:11:51;100432.75;;;28.86;34.65
56630;BME280;42502;40.732;-74.254;2023-06-19T03:13:53;100438.41;;;28.86;34.61
56630;BME280;42502;40.732;-74.254;2023-06-19T03:15:54;100434.38;;;28.87;34.49
56630;BME280;42502;40.732;-74.254;2023-06-19T03:17:58;100428.28;;;28.85;34.79
56630;BME280;42502;40.732;-74.254;2023-06-19T03:19:58;100425.44;;;28.85;34.88
56630;BME280;42502;40.732;-74.254;2023-06-19T03:21:59;100435.19;;;28.84;34.60
56630;BME280;42502;40.732;-74.254;2023-06-19T03:24:00;100425.88;;;28.83;34.46
56630;BME280;42502;40.732;-74.254;2023-06-19T03:26:01;100428.72;;;28.80;34.89
56630;BME280;42502;40.732;-74.254;2023-06-19T03:28:08;100425.47;;;28.81;34.89
56630;BME280;42502;40.732;-74.254;2023-06-19T03:30:09;100422.66;;;28.78;34.46
56630;BME280;42502;40.732;-74.254;2023-06-19T03:32:13;100439.69;;;28.81;34.39
56630;BME280;42502;40.732;-74.254;2023-06-19T03:34:14;100437.63;;;28.82;34.53
56630;BME280;42502;40.732;-74.254;2023-06-19T03:36:15;100440.91;;;28.80;34.49
56630;BME280;42502;40.732;-74.254;2023-06-19T03:38:15;100444.97;;;28.79;34.82
56630;BME280;42502;40.732;-74.254;2023-06-19T03:40:17;100444.97;;;28.79;34.50
56630;BME280;42502;40.732;-74.254;2023-06-19T03:42:18;100449.84;;;28.79;34.75
56630;BME280;42502;40.732;-74.254;2023-06-19T03:44:18;100456.34;;;28.79;34.88
56630;BME280;42502;40.732;-74.254;2023-06-19T03:46:19;100444.56;;;28.77;34.47
56630;BME280;42502;40.732;-74.254;2023-06-19T03:48:20;100441.72;;;28.77;34.47
56630;BME280;42502;40.732;-74.254;2023-06-19T03:50:21;100440.94;;;28.77;34.39
56630;BME280;42502;40.732;-74.254;2023-06-19T03:52:22;100450.69;;;28.76;34.90
56630;BME280;42502;40.732;-74.254;2023-06-19T03:54:26;100454.75;;;28.75;34.79
56630;BME280;42502;40.732;-74.254;2023-06-19T03:56:27;100462.88;;;28.73;34.93
56630;BME280;42502;40.732;-74.254;2023-06-19T03:58:27;100473.03;;;28.74;34.54
56630;BME280;42502;40.732;-74.254;2023-06-19T04:00:32;100468.97;;;28.71;34.88
56630;BME280;42502;40.732;-74.254;2023-06-19T04:02:33;100474.66;;;28.71;34.34
56630;BME280;42502;40.732;-74.254;2023-06-19T04:04:34;100457.63;;;28.71;34.47
56630;BME280;42502;40.732;-74.254;2023-06-19T04:06:38;100463.28;;;28.71;34.48
56630;BME280;42502;40.732;-74.254;2023-06-19T04:08:38;100458.84;;;28.70;34.69
56630;BME280;42502;40.732;-74.254;2023-06-19T04:10:45;100468.59;;;28.69;34.33
56630;BME280;42502;40.732;-74.254;2023-06-19T04:12:46;100460.06;;;28.69;34.37
56630;BME280;42502;40.732;-74.254;2023-06-19T04:14:48;100452.75;;;28.68;34.69
56630;BME280;42502;40.732;-74.254;2023-06-19T04:16:51;100456.00;;;28.70;34.33
56630;BME280;42502;40.732;-74.254;2023-06-19T04:18:52;100457.66;;;28.67;34.50
56630;BME280;42502;40.732;-74.254;2023-06-19T04:20:53;100461.28;;;28.68;34.60
56630;BME280;42502;40.732;-74.254;2023-06-19T04:22:54;100458.44;;;28.68;34.87
56630;BME280;42502;40.732;-74.254;2023-06-19T04:24:57;100469.81;;;28.68;34.54
56630;BME280;42502;40.732;-74.254;2023-06-19T04:26:58;100475.13;;;28.66;34.67
56630;BME280;42502;40.732;-74.254;2023-06-19T04:29:01;100468.63;;;28.65;34.81
56630;BME280;42502;40.732;-74.254;2023-06-19T04:31:02;100464.97;;;28.65;34.35
56630;BME280;42502;40.732;-74.254;2023-06-19T04:33:03;100469.84;;;28.64;34.78
56630;BME280;42502;40.732;-74.254;2023-06-19T04:35:08;100471.88;;;28.64;34.19
56630;BME280;42502;40.732;-74.254;2023-06-19T04:37:09;100474.31;;;28.62;34.31
56630;BME280;42502;40.732;-74.254;2023-06-19T04:39:10;100469.47;;;28.62;34.70
56630;BME280;42502;40.732;-74.254;2023-06-19T04:41:11;100478.41;;;28.61;34.36
56630;BME280;42502;40.732;-74.254;2023-06-19T04:43:15;100478.41;;;28.61;34.27
56630;BME280;42502;40.732;-74.254;2023-06-19T04:45:15;100471.09;;;28.60;34.50
56630;BME280;42502;40.732;-74.254;2023-06-19T04:47:19;100477.56;;;28.60;34.31
56630;BME280;42502;40.732;-74.254;2023-06-19T04:49:20;100475.97;;;28.59;34.28
56630;BME280;42502;40.732;-74.254;2023-06-19T04:51:21;100477.19;;;28.54;34.60
56630;BME280;42502;40.732;-74.254;2023-06-19T04:53:21;100475.19;;;28.51;34.66
56630;BME280;42502;40.732;-74.254;2023-06-19T04:55:23;100478.78;;;28.56;34.23
56630;BME280;42502;40.732;-74.254;2023-06-19T04:57:25;100485.31;;;28.56;34.21
56630;BME280;42502;40.732;-74.254;2023-06-19T04:59:26;100480.84;;;28.55;34.25
56630;BME280;42502;40.732;-74.254;2023-06-19T05:01:27;100491.41;;;28.54;34.55
56630;BME280;42502;40.732;-74.254;2023-06-19T05:03:31;100492.19;;;28.55;34.13
56630;BME280;42502;40.732;-74.254;2023-06-19T05:05:32;100489.78;;;28.53;34.54
56630;BME280;42502;40.732;-74.254;2023-06-19T05:07:33;100494.66;;;28.53;34.35
56630;BME280;42502;40.732;-74.254;2023-06-19T05:09:34;100484.13;;;28.46;34.25
56630;BME280;42502;40.732;-74.254;2023-06-19T05:11:35;100493.84;;;28.52;34.23
56630;BME280;42502;40.732;-74.254;2023-06-19T05:13:38;100498.72;;;28.52;34.20
56630;BME280;42502;40.732;-74.254;2023-06-19T05:15:39;100509.66;;;28.53;34.14
56630;BME280;42502;40.732;-74.254;2023-06-19T05:17:40;100498.72;;;28.48;34.19
56630;BME280;42502;40.732;-74.254;2023-06-19T05:19:41;100507.25;;;28.48;34.39
56630;BME280;42502;40.732;-74.254;2023-06-19T05:21:42;100508.88;;;28.49;34.38
56630;BME280;42502;40.732;-74.254;2023-06-19T05:23:43;100508.88;;;28.49;34.52
56630;BME280;42502;40.732;-74.254;2023-06-19T05:25:43;100510.09;;;28.48;34.41
56630;BME280;42502;40.732;-74.254;2023-06-19T05:27:47;100517.81;;;28.48;34.03
56630;BME280;42502;40.732;-74.254;2023-06-19T05:29:48;100509.28;;;28.48;34.22
56630;BME280;42502;40.732;-74.254;2023-06-19T05:31:48;100514.16;;;28.47;34.50
56630;BME280;42502;40.732;-74.254;2023-06-19T05:33:49;100523.91;;;28.46;34.34
56630;BME280;42502;40.732;-74.254;2023-06-19T05:35:56;100519.44;;;28.45;34.17
56630;BME280;42502;40.732;-74.254;2023-06-19T05:38:00;100512.16;;;28.44;34.22
56630;BME280;42502;40.732;-74.254;2023-06-19T05:40:01;100515.00;;;28.44;33.92
56630;BME280;42502;40.732;-74.254;2023-06-19T05:42:02;100513.38;;;28.43;34.25
56630;BME280;42502;40.732;-74.254;2023-06-19T05:44:03;100501.22;;;28.35;33.98
56630;BME280;42502;40.732;-74.254;2023-06-19T05:46:03;100521.50;;;28.41;34.46
56630;BME280;42502;40.732;-74.254;2023-06-19T05:48:07;100511.72;;;28.42;34.08
56630;BME280;42502;40.732;-74.254;2023-06-19T05:50:11;100517.84;;;28.41;34.20
56630;BME280;42502;40.732;-74.254;2023-06-19T05:52:12;100512.56;;;28.39;34.22
56630;BME280;42502;40.732;-74.254;2023-06-19T05:54:13;100518.25;;;28.39;34.47
56630;BME280;42502;40.732;-74.254;2023-06-19T05:56:13;100512.97;;;28.38;34.26
56630;BME280;42502;40.732;-74.254;2023-06-19T05:58:14;100513.38;;;28.36;34.07
56630;BME280;42502;40.732;-74.254;2023-06-19T06:00:18;100506.50;;;28.37;34.21
56630;BME280;42502;40.732;-74.254;2023-06-19T06:02:20;100508.53;;;28.36;34.35
56630;BME280;42502;40.732;-74.254;2023-06-19T06:04:20;100504.09;;;28.32;34.23
56630;BME280;42502;40.732;-74.254;2023-06-19T06:06:24;100516.66;;;28.34;34.49
56630;BME280;42502;40.732;-74.254;2023-06-19T06:08:26;100515.03;;;28.33;34.06
56630;BME280;42502;40.732;-74.254;2023-06-19T06:10:26;100517.88;;;28.33;34.06
56630;BME280;42502;40.732;-74.254;2023-06-19T06:12:31;100521.13;;;28.32;34.32
56630;BME280;42502;40.732;-74.254;2023-06-19T06:14:34;100522.34;;;28.31;34.12
56630;BME280;42502;40.732;-74.254;2023-06-19T06:16:34;100522.34;;;28.31;34.20
56630;BME280;42502;40.732;-74.254;2023-06-19T06:18:38;100526.41;;;28.30;34.04
56630;BME280;42502;40.732;-74.254;2023-06-19T06:20:39;100532.09;;;28.30;34.31
56630;BME280;42502;40.732;-74.254;2023-06-19T06:22:41;100521.97;;;28.25;34.32
56630;BME280;42502;40.732;-74.254;2023-06-19T06:24:42;100529.66;;;28.28;34.07
56630;BME280;42502;40.732;-74.254;2023-06-19T06:26:43;100524.81;;;28.25;33.96
56630;BME280;42502;40.732;-74.254;2023-06-19T06:28:44;100529.69;;;28.25;34.40
56630;BME280;42502;40.732;-74.254;2023-06-19T06:30:44;100525.63;;;28.26;33.83
56630;BME280;42502;40.732;-74.254;2023-06-19T06:32:45;100523.19;;;28.24;34.00
56630;BME280;42502;40.732;-74.254;2023-06-19T06:34:49;100522.41;;;28.20;33.88
56630;BME280;42502;40.732;-74.254;2023-06-19T06:36:50;100528.06;;;28.24;34.02
56630;BME280;42502;40.732;-74.254;2023-06-19T06:38:50;100519.53;;;28.24;34.22
56630;BME280;42502;40.732;-74.254;2023-06-19T06:40:51;100520.38;;;28.24;33.86
56630;BME280;42502;40.732;-74.254;2023-06-19T06:42:52;100519.16;;;28.22;33.85
56630;BME280;42502;40.732;-74.254;2023-06-19T06:44:59;100526.03;;;28.21;34.08
56630;BME280;42502;40.732;-74.254;2023-06-19T06:47:00;100522.41;;;28.20;34.34
56630;BME280;42502;40.732;-74.254;2023-06-19T06:49:01;100523.19;;;28.21;33.91
56630;BME280;42502;40.732;-74.254;2023-06-19T06:51:02;100522.41;;;28.20;34.29
56630;BME280;42502;40.732;-74.254;2023-06-19T06:53:03;100526.44;;;28.19;34.18
56630;BME280;42502;40.732;-74.254;2023-06-19T06:55:04;100519.13;;;28.18;34.09
56630;BME280;42502;40.732;-74.254;2023-06-19T06:57:08;100518.34;;;28.17;33.98
56630;BME280;42502;40.732;-74.254;2023-06-19T06:59:11;100512.69;;;28.14;34.00
56630;BME280;42502;40.732;-74.254;2023-06-19T07:01:12;100511.84;;;28.13;34.11
56630;BME280;42502;40.732;-74.254;2023-06-19T07:03:13;100520.00;;;28.11;33.87
56630;BME280;42502;40.732;-74.254;2023-06-19T07:05:14;100522.00;;;28.14;34.21
56630;BME280;42502;40.732;-74.254;2023-06-19T07:07:15;100519.56;;;28.13;34.31
56630;BME280;42502;40.732;-74.254;2023-06-19T07:09:15;100531.72;;;28.13;33.91
56630;BME280;42502;40.732;-74.254;2023-06-19T07:11:16;100533.78;;;28.09;34.26
56630;BME280;42502;40.732;-74.254;2023-06-19T07:13:17;100534.56;;;28.13;34.01
56630;BME280;42502;40.732;-74.254;2023-06-19T07:15:18;100531.34;;;28.11;33.92
56630;BME280;42502;40.732;-74.254;2023-06-19T07:17:19;100535.41;;;28.10;33.87
56630;BME280;42502;40.732;-74.254;2023-06-19T07:19:20;100533.78;;;28.09;33.82
56630;BME280;42502;40.732;-74.254;2023-06-19T07:21:24;100535.81;;;28.09;33.84
56630;BME280;42502;40.732;-74.254;2023-06-19T07:23:24;100537.03;;;28.08;33.94
56630;BME280;42502;40.732;-74.254;2023-06-19T07:25:25;100539.47;;;28.06;34.23
56630;BME280;42502;40.732;-74.254;2023-06-19T07:27:29;100549.63;;;28.07;33.82
56630;BME280;42502;40.732;-74.254;2023-06-19T07:29:30;100546.78;;;28.07;34.18
56630;BME280;42502;40.732;-74.254;2023-06-19T07:31:31;100552.88;;;28.05;34.08
56630;BME280;42502;40.732;-74.254;2023-06-19T07:33:32;100552.06;;;28.05;33.90
56630;BME280;42502;40.732;-74.254;2023-06-19T07:35:33;100551.66;;;28.03;33.80
56630;BME280;42502;40.732;-74.254;2023-06-19T07:37:34;100544.78;;;28.00;33.85
56630;BME280;42502;40.732;-74.254;2023-06-19T07:39:35;100557.72;;;28.01;34.18
56630;BME280;42502;40.732;-74.254;2023-06-19T07:41:36;100549.22;;;28.01;34.06
56630;BME280;42502;40.732;-74.254;2023-06-19T07:43:40;100550.44;;;28.00;33.97
56630;BME280;42502;40.732;-74.254;2023-06-19T07:45:40;100560.56;;;28.01;33.94
56630;BME280;42502;40.732;-74.254;2023-06-19T07:47:41;100555.31;;;27.99;34.16
56630;BME280;42502;40.732;-74.254;2023-06-19T07:49:42;100555.72;;;27.98;33.91
56630;BME280;42502;40.732;-74.254;2023-06-19T07:51:43;100569.91;;;27.98;34.08
56630;BME280;42502;40.732;-74.254;2023-06-19T07:53:44;100562.19;;;27.95;33.76
56630;BME280;42502;40.732;-74.254;2023-06-19T07:55:44;100559.78;;;27.97;33.78
56630;BME280;42502;40.732;-74.254;2023-06-19T07:57:45;100557.34;;;27.95;34.09
56630;BME280;42502;40.732;-74.254;2023-06-19T07:59:47;100555.69;;;27.94;33.82
56630;BME280;42502;40.732;-74.254;2023-06-19T08:01:54;100543.53;;;27.90;33.90
56630;BME280;42502;40.732;-74.254;2023-06-19T08:03:55;100557.31;;;27.92;34.14
56630;BME280;42502;40.732;-74.254;2023-06-19T08:05:56;100561.00;;;27.92;33.82
56630;BME280;42502;40.732;-74.254;2023-06-19T08:07:58;100557.75;;;27.87;33.97
56630;BME280;42502;40.732;-74.254;2023-06-19T08:10:00;100554.47;;;27.92;33.93
56630;BME280;42502;40.732;-74.254;2023-06-19T08:12:03;100548.41;;;27.90;33.87
56630;BME280;42502;40.732;-74.254;2023-06-19T08:14:04;100554.09;;;27.90;33.94
56630;BME280;42502;40.732;-74.254;2023-06-19T08:16:05;100558.13;;;27.89;33.83
56630;BME280;42502;40.732;-74.254;2023-06-19T08:18:07;100565.03;;;27.88;34.04
56630;BME280;42502;40.732;-74.254;2023-06-19T08:20:08;100564.22;;;27.87;33.85
56630;BME280;42502;40.732;-74.254;2023-06-19T08:22:12;100559.34;;;27.88;33.77
56630;BME280;42502;40.732;-74.254;2023-06-19T08:24:16;100558.97;;;27.82;34.10
56630;BME280;42502;40.732;-74.254;2023-06-19T08:26:20;100554.47;;;27.84;34.18
56630;BME280;42502;40.732;-74.254;2023-06-19T08:28:20;100569.50;;;27.85;33.78
56630;BME280;42502;40.732;-74.254;2023-06-19T08:30:21;100579.63;;;27.82;33.79
56630;BME280;42502;40.732;-74.254;2023-06-19T08:32:25;100572.75;;;27.83;33.90
56630;BME280;42502;40.732;-74.254;2023-06-19T08:34:26;100582.47;;;27.82;33.91
56630;BME280;42502;40.732;-74.254;2023-06-19T08:36:30;100557.34;;;27.74;33.96
56630;BME280;42502;40.732;-74.254;2023-06-19T08:38:31;100570.72;;;27.80;34.04
56630;BME280;42502;40.732;-74.254;2023-06-19T08:40:33;100575.56;;;27.80;33.92
56630;BME280;42502;40.732;-74.254;2023-06-19T08:42:34;100570.72;;;27.77;34.21
56630;BME280;42502;40.732;-74.254;2023-06-19T08:44:35;100566.66;;;27.71;33.80
56630;BME280;42502;40.732;-74.254;2023-06-19T08:46:36;100581.66;;;27.78;33.84
56630;BME280;42502;40.732;-74.254;2023-06-19T08:48:38;100581.66;;;27.78;34.23
56630;BME280;42502;40.732;-74.254;2023-06-19T08:50:38;100578.44;;;27.76;33.73
56630;BME280;42502;40.732;-74.254;2023-06-19T08:52:39;100572.75;;;27.76;33.95
56630;BME280;42502;40.732;-74.254;2023-06-19T08:54:46;100582.47;;;27.75;34.13
56630;BME280;42502;40.732;-74.254;2023-06-19T08:56:52;100580.03;;;27.74;33.75
56630;BME280;42502;40.732;-74.254;2023-06-19T08:58:54;100578.84;;;27.75;33.78
56630;BME280;42502;40.732;-74.254;2023-06-19T09:00:57;100584.13;;;27.73;34.22
56630;BME280;42502;40.732;-74.254;2023-06-19T09:03:01;100584.94;;;27.73;33.68
56630;BME280;42502;40.732;-74.254;2023-06-19T09:05:13;100586.97;;;27.73;34.08
56630;BME280;42502;40.732;-74.254;2023-06-19T09:07:14;100593.84;;;27.72;34.08
56630;BME280;42502;40.732;-74.254;2023-06-19T09:09:19;100582.91;;;27.63;34.09
56630;BME280;42502;40.732;-74.254;2023-06-19T09:11:24;100587.34;;;27.68;33.92
56630;BME280;42502;40.732;-74.254;2023-06-19T09:13:25;100601.13;;;27.69;33.74
56630;BME280;42502;40.732;-74.254;2023-06-19T09:15:34;100611.69;;;27.69;34.17
56630;BME280;42502;40.732;-74.254;2023-06-19T09:17:38;100615.72;;;27.68;34.31
56630;BME280;42502;40.732;-74.254;2023-06-19T09:19:59;100618.97;;;27.66;33.98
56630;BME280;42502;40.732;-74.254;2023-06-19T09:22:04;100622.66;;;27.67;33.95
56630;BME280;42502;40.732;-74.254;2023-06-19T09:24:07;100629.13;;;27.67;34.12
56630;BME280;42502;40.732;-74.254;2023-06-19T09:26:08;100623.84;;;27.65;34.21
56630;BME280;42502;40.732;-74.254;2023-06-19T09:28:17;100632.75;;;27.64;34.04
56630;BME280;42502;40.732;-74.254;2023-06-19T09:30:18;100634.41;;;27.65;34.11
56630;BME280;42502;40.732;-74.254;2023-06-19T09:32:23;100631.13;;;27.63;34.08
56630;BME280;42502;40.732;-74.254;2023-06-19T09:36:46;100636.81;;;27.63;34.34
56630;BME280;42502;40.732;-74.254;2023-06-19T09:38:48;100640.88;;;27.62;33.89
56630;BME280;42502;40.732;-74.254;2023-06-19T09:40:52;100644.13;;;27.60;34.00
56630;BME280;42502;40.732;-74.254;2023-06-19T09:42:54;100639.25;;;27.61;34.29
56630;BME280;42502;40.732;-74.254;2023-06-19T09:45:02;100636.78;;;27.56;33.82
56630;BME280;42502;40.732;-74.254;2023-06-19T09:47:17;100640.06;;;27.58;33.85
56630;BME280;42502;40.732;-74.254;2023-06-19T09:49:19;100637.22;;;27.51;34.11
56630;BME280;42502;40.732;-74.254;2023-06-19T09:51:31;100665.16;;;27.56;33.90
56630;BME280;42502;40.732;-74.254;2023-06-19T09:53:34;100668.00;;;27.56;34.18
56630;BME280;42502;40.732;-74.254;2023-06-19T09:55:36;100672.88;;;27.55;33.88
56630;BME280;42502;40.732;-74.254;2023-06-19T09:57:42;100668.00;;;27.56;34.04
56630;BME280;42502;40.732;-74.254;2023-06-19T09:59:48;100665.16;;;27.56;33.70
56630;BME280;42502;40.732;-74.254;2023-06-19T10:01:50;100669.66;;;27.53;33.94
56630;BME280;42502;40.732;-74.254;2023-06-19T10:04:05;100665.19;;;27.52;34.13
56630;BME280;42502;40.732;-74.254;2023-06-19T10:06:13;100667.22;;;27.52;34.10
56630;BME280;42502;40.732;-74.254;2023-06-19T10:08:29;100662.34;;;27.48;33.87
56630;BME280;42502;40.732;-74.254;2023-06-19T10:10:31;100667.59;;;27.46;33.97
56630;BME280;42502;40.732;-74.254;2023-06-19T10:12:41;100635.94;;;27.30;34.35
56630;BME280;42502;40.732;-74.254;2023-06-19T10:14:47;100659.50;;;27.48;34.25
56630;BME280;42502;40.732;-74.254;2023-06-19T10:16:49;100660.31;;;27.45;34.02
56630;BME280;42502;40.732;-74.254;2023-06-19T10:18:50;100661.13;;;27.42;34.09
56630;BME280;42502;40.732;-74.254;2023-06-19T10:20:51;100669.22;;;27.47;34.01
56630;BME280;42502;40.732;-74.254;2023-06-19T10:23:22;100669.22;;;27.44;34.11
56630;BME280;42502;40.732;-74.254;2023-06-19T10:25:26;100668.00;;;27.45;34.37
56630;BME280;42502;40.732;-74.254;2023-06-19T10:27:27;100676.50;;;27.45;34.26